sensor_id;sensor_type;location;lat;lon;timestamp;pressure;altitude;pressure_sealevel;temperature;humidity
49709;BME280;35601;55.902;13.606;2022-12-18T00:00:44;101903.81;;;-9.69;64.33
49709;BME280;35601;55.902;13.606;2022-12-18T00:03:09;101906.59;;;-9.80;65.22
49709;BME280;35601;55.902;13.606;2022-12-18T00:05:34;101903.26;;;-10.11;66.34
49709;BME280;35601;55.902;13.606;2022-12-18T00:08:00;101902.36;;;-10.10;66.95
49709;BME280;35601;55.902;13.606;2022-12-18T00:10:27;101902.57;;;-10.33;67.82
49709;BME280;35601;55.902;13.606;2022-12-18T00:12:51;101899.61;;;-9.91;67.55
49709;BME280;35601;55.902;13.606;2022-12-18T00:15:17;101897.86;;;-10.06;69.49
49709;BME280;35601;55.902;13.606;2022-12-18T00:17:43;101904.42;;;-9.84;68.43
49709;BME280;35601;55.902;13.606;2022-12-18T00:20:09;101905.15;;;-9.69;68.15
49709;BME280;35601;55.902;13.606;2022-12-18T00:22:34;101904.89;;;-9.45;67.60
49709;BME280;35601;55.902;13.606;2022-12-18T00:24:59;101903.48;;;-9.53;67.52
49709;BME280;35601;55.902;13.606;2022-12-18T00:27:25;101903.19;;;-9.59;66.52
49709;BME280;35601;55.902;13.606;2022-12-18T00:29:50;101909.05;;;-9.72;66.55
49709;BME280;35601;55.902;13.606;2022-12-18T00:32:15;101907.11;;;-9.96;65.90
49709;BME280;35601;55.902;13.606;2022-12-18T00:34:41;101907.98;;;-9.79;65.99
49709;BME280;35601;55.902;13.606;2022-12-18T00:37:06;101906.55;;;-9.73;65.43
49709;BME280;35601;55.902;13.606;2022-12-18T00:39:32;101908.97;;;-9.75;64.99
49709;BME280;35601;55.902;13.606;2022-12-18T00:41:57;101909.28;;;-9.54;65.23
49709;BME280;35601;55.902;13.606;2022-12-18T00:44:23;101909.31;;;-9.87;65.64
49709;BME280;35601;55.902;13.606;2022-12-18T00:46:48;101903.52;;;-9.86;66.05
49709;BME280;35601;55.902;13.606;2022-12-18T00:49:15;101898.40;;;-9.45;65.90
49709;BME280;35601;55.902;13.606;2022-12-18T00:51:40;101895.58;;;-9.49;67.32
49709;BME280;35601;55.902;13.606;2022-12-18T00:54:05;101896.18;;;-9.55;68.52
49709;BME280;35601;55.902;13.606;2022-12-18T00:56:31;101898.05;;;-9.76;73.56
49709;BME280;35601;55.902;13.606;2022-12-18T00:58:57;101899.43;;;-9.54;74.11
49709;BME280;35601;55.902;13.606;2022-12-18T01:01:22;101901.60;;;-9.60;74.01
49709;BME280;35601;55.902;13.606;2022-12-18T01:03:47;101907.86;;;-8.99;73.16
49709;BME280;35601;55.902;13.606;2022-12-18T01:06:14;101907.44;;;-9.09;72.82
49709;BME280;35601;55.902;13.606;2022-12-18T01:08:39;101905.06;;;-9.27;72.93
49709;BME280;35601;55.902;13.606;2022-12-18T01:11:08;101912.65;;;-8.87;73.02
49709;BME280;35601;55.902;13.606;2022-12-18T01:13:29;101915.61;;;-8.79;72.33
49709;BME280;35601;55.902;13.606;2022-12-18T01:15:54;101915.97;;;-8.70;71.58
49709;BME280;35601;55.902;13.606;2022-12-18T01:18:20;101916.40;;;-9.09;71.19
49709;BME280;35601;55.902;13.606;2022-12-18T01:20:45;101916.24;;;-8.98;71.05
49709;BME280;35601;55.902;13.606;2022-12-18T01:23:11;101920.04;;;-8.93;70.61
49709;BME280;35601;55.902;13.606;2022-12-18T01:25:37;101924.63;;;-8.94;70.39
49709;BME280;35601;55.902;13.606;2022-12-18T01:28:02;101928.81;;;-9.03;69.52
49709;BME280;35601;55.902;13.606;2022-12-18T01:30:27;101928.65;;;-8.74;69.11
49709;BME280;35601;55.902;13.606;2022-12-18T01:32:53;101928.96;;;-8.96;68.43
49709;BME280;35601;55.902;13.606;2022-12-18T01:35:18;101932.07;;;-8.73;68.11
49709;BME280;35601;55.902;13.606;2022-12-18T01:37:44;101943.52;;;-9.01;67.70
49709;BME280;35601;55.902;13.606;2022-12-18T01:40:10;101939.70;;;-8.76;67.52
49709;BME280;35601;55.902;13.606;2022-12-18T01:42:35;101942.03;;;-8.81;67.01
49709;BME280;35601;55.902;13.606;2022-12-18T01:45:06;101941.82;;;-9.17;66.55
49709;BME280;35601;55.902;13.606;2022-12-18T01:47:29;101934.12;;;-9.27;66.70
49709;BME280;35601;55.902;13.606;2022-12-18T01:49:51;101933.52;;;-9.02;67.24
49709;BME280;35601;55.902;13.606;2022-12-18T01:52:17;101931.44;;;-8.99;66.86
49709;BME280;35601;55.902;13.606;2022-12-18T01:54:43;101924.73;;;-9.46;67.01
49709;BME280;35601;55.902;13.606;2022-12-18T01:57:08;101922.93;;;-9.25;69.80
49709;BME280;35601;55.902;13.606;2022-12-18T01:59:33;101921.48;;;-9.42;72.22
49709;BME280;35601;55.902;13.606;2022-12-18T02:01:59;101917.35;;;-9.15;74.47
49709;BME280;35601;55.902;13.606;2022-12-18T02:04:26;101920.52;;;-9.09;78.03
49709;BME280;35601;55.902;13.606;2022-12-18T02:06:55;101923.74;;;-8.98;80.17
49709;BME280;35601;55.902;13.606;2022-12-18T02:09:18;101921.10;;;-10.27;81.27
49709;BME280;35601;55.902;13.606;2022-12-18T02:11:45;101916.64;;;-9.45;81.79
49709;BME280;35601;55.902;13.606;2022-12-18T02:14:14;101910.96;;;-8.58;82.43
49709;BME280;35601;55.902;13.606;2022-12-18T02:16:38;101909.53;;;-8.21;83.28
49709;BME280;35601;55.902;13.606;2022-12-18T02:18:58;101910.79;;;-8.00;83.52
49709;BME280;35601;55.902;13.606;2022-12-18T02:21:28;101907.87;;;-8.09;83.80
49709;BME280;35601;55.902;13.606;2022-12-18T02:23:52;101906.97;;;-7.75;83.67
49709;BME280;35601;55.902;13.606;2022-12-18T02:26:18;101906.03;;;-7.79;84.83
49709;BME280;35601;55.902;13.606;2022-12-18T02:28:42;101903.35;;;-7.45;84.42
49709;BME280;35601;55.902;13.606;2022-12-18T02:31:06;101907.28;;;-7.73;83.87
49709;BME280;35601;55.902;13.606;2022-12-18T02:33:30;101905.13;;;-7.18;83.05
49709;BME280;35601;55.902;13.606;2022-12-18T02:35:55;101907.18;;;-7.14;82.97
49709;BME280;35601;55.902;13.606;2022-12-18T02:38:20;101908.71;;;-6.92;81.86
49709;BME280;35601;55.902;13.606;2022-12-18T02:40:46;101913.04;;;-7.10;82.06
49709;BME280;35601;55.902;13.606;2022-12-18T02:43:13;101917.40;;;-6.73;81.06
49709;BME280;35601;55.902;13.606;2022-12-18T02:45:46;101919.31;;;-7.12;80.37
49709;BME280;35601;55.902;13.606;2022-12-18T02:48:02;101924.51;;;-7.16;80.38
49709;BME280;35601;55.902;13.606;2022-12-18T02:50:34;101925.65;;;-7.27;80.77
49709;BME280;35601;55.902;13.606;2022-12-18T02:53:02;101933.90;;;-7.05;81.65
49709;BME280;35601;55.902;13.606;2022-12-18T02:55:27;101932.22;;;-7.21;81.75
49709;BME280;35601;55.902;13.606;2022-12-18T02:57:48;101934.31;;;-6.84;81.38
49709;BME280;35601;55.902;13.606;2022-12-18T03:00:12;101932.10;;;-7.12;81.50
49709;BME280;35601;55.902;13.606;2022-12-18T03:02:39;101930.19;;;-6.86;82.11
49709;BME280;35601;55.902;13.606;2022-12-18T03:05:07;101931.62;;;-6.83;82.20
49709;BME280;35601;55.902;13.606;2022-12-18T03:07:33;101928.42;;;-7.06;82.41
49709;BME280;35601;55.902;13.606;2022-12-18T03:09:51;101917.62;;;-6.91;82.77
49709;BME280;35601;55.902;13.606;2022-12-18T03:12:20;101909.96;;;-6.83;83.53
49709;BME280;35601;55.902;13.606;2022-12-18T03:14:42;101913.04;;;-6.94;82.65
49709;BME280;35601;55.902;13.606;2022-12-18T03:17:10;101916.82;;;-7.02;82.97
49709;BME280;35601;55.902;13.606;2022-12-18T03:19:33;101908.61;;;-6.66;82.58
49709;BME280;35601;55.902;13.606;2022-12-18T03:22:00;101905.57;;;-6.62;82.74
49709;BME280;35601;55.902;13.606;2022-12-18T03:24:24;101918.83;;;-6.51;82.82
49709;BME280;35601;55.902;13.606;2022-12-18T03:26:50;101920.70;;;-6.56;82.10
49709;BME280;35601;55.902;13.606;2022-12-18T03:29:17;101925.27;;;-6.35;81.26
49709;BME280;35601;55.902;13.606;2022-12-18T03:31:40;101932.34;;;-5.99;79.93
49709;BME280;35601;55.902;13.606;2022-12-18T03:34:09;101934.30;;;-6.13;79.29
49709;BME280;35601;55.902;13.606;2022-12-18T03:36:30;101941.75;;;-5.87;78.41
49709;BME280;35601;55.902;13.606;2022-12-18T03:38:56;101943.22;;;-5.77;77.88
49709;BME280;35601;55.902;13.606;2022-12-18T03:41:27;101941.91;;;-6.01;78.76
49709;BME280;35601;55.902;13.606;2022-12-18T03:43:51;101939.60;;;-6.19;79.45
49709;BME280;35601;55.902;13.606;2022-12-18T03:46:17;101937.25;;;-6.02;79.76
49709;BME280;35601;55.902;13.606;2022-12-18T03:48:42;101937.18;;;-6.33;80.89
49709;BME280;35601;55.902;13.606;2022-12-18T03:51:07;101937.96;;;-6.47;81.09
49709;BME280;35601;55.902;13.606;2022-12-18T03:53:35;101935.51;;;-6.20;81.04
49709;BME280;35601;55.902;13.606;2022-12-18T03:55:55;101930.61;;;-6.24;81.01
49709;BME280;35601;55.902;13.606;2022-12-18T03:58:23;101925.45;;;-6.27;81.23
49709;BME280;35601;55.902;13.606;2022-12-18T04:00:46;101921.67;;;-6.38;81.96
49709;BME280;35601;55.902;13.606;2022-12-18T04:03:11;101921.50;;;-6.01;81.58
49709;BME280;35601;55.902;13.606;2022-12-18T04:05:36;101926.52;;;-5.83;81.12
49709;BME280;35601;55.902;13.606;2022-12-18T04:08:01;101917.89;;;-6.33;81.84
49709;BME280;35601;55.902;13.606;2022-12-18T04:10:27;101912.39;;;-6.50;82.36
49709;BME280;35601;55.902;13.606;2022-12-18T04:12:55;101914.28;;;-6.54;82.52
49709;BME280;35601;55.902;13.606;2022-12-18T04:15:17;101921.21;;;-5.96;82.25
49709;BME280;35601;55.902;13.606;2022-12-18T04:17:47;101920.32;;;-6.37;81.83
49709;BME280;35601;55.902;13.606;2022-12-18T04:20:09;101921.67;;;-5.95;80.87
49709;BME280;35601;55.902;13.606;2022-12-18T04:22:33;101927.16;;;-6.05;80.18
49709;BME280;35601;55.902;13.606;2022-12-18T04:24:58;101930.00;;;-5.72;78.91
49709;BME280;35601;55.902;13.606;2022-12-18T04:27:24;101929.67;;;-6.10;79.16
49709;BME280;35601;55.902;13.606;2022-12-18T04:29:50;101930.04;;;-6.15;79.84
49709;BME280;35601;55.902;13.606;2022-12-18T04:32:15;101928.88;;;-6.35;80.53
49709;BME280;35601;55.902;13.606;2022-12-18T04:34:40;101924.83;;;-6.18;80.84
49709;BME280;35601;55.902;13.606;2022-12-18T04:37:06;101934.09;;;-6.23;80.51
49709;BME280;35601;55.902;13.606;2022-12-18T04:39:31;101925.22;;;-6.39;80.60
49709;BME280;35601;55.902;13.606;2022-12-18T04:41:57;101924.75;;;-6.43;80.51
49709;BME280;35601;55.902;13.606;2022-12-18T04:44:22;101929.00;;;-6.41;80.64
49709;BME280;35601;55.902;13.606;2022-12-18T04:46:47;101936.92;;;-6.05;80.62
49709;BME280;35601;55.902;13.606;2022-12-18T04:49:13;101935.08;;;-6.28;80.37
49709;BME280;35601;55.902;13.606;2022-12-18T04:51:38;101941.45;;;-6.30;80.10
49709;BME280;35601;55.902;13.606;2022-12-18T04:54:04;101939.87;;;-6.42;80.41
49709;BME280;35601;55.902;13.606;2022-12-18T04:56:30;101940.12;;;-6.07;80.17
49709;BME280;35601;55.902;13.606;2022-12-18T04:58:54;101941.31;;;-6.45;80.41
49709;BME280;35601;55.902;13.606;2022-12-18T05:01:20;101944.59;;;-5.96;79.68
49709;BME280;35601;55.902;13.606;2022-12-18T05:03:46;101941.79;;;-6.35;80.02
49709;BME280;35601;55.902;13.606;2022-12-18T05:06:12;101934.49;;;-6.34;80.27
49709;BME280;35601;55.902;13.606;2022-12-18T05:08:37;101921.71;;;-6.39;80.71
49709;BME280;35601;55.902;13.606;2022-12-18T05:11:04;101924.92;;;-6.15;80.41
49709;BME280;35601;55.902;13.606;2022-12-18T05:13:29;101938.26;;;-6.24;79.69
49709;BME280;35601;55.902;13.606;2022-12-18T05:15:54;101937.06;;;-6.01;79.44
49709;BME280;35601;55.902;13.606;2022-12-18T05:18:19;101939.69;;;-7.44;78.77
49709;BME280;35601;55.902;13.606;2022-12-18T05:20:45;101941.51;;;-7.57;77.86
49709;BME280;35601;55.902;13.606;2022-12-18T05:23:10;101946.46;;;-7.48;77.41
49709;BME280;35601;55.902;13.606;2022-12-18T05:25:35;101943.98;;;-5.86;76.84
49709;BME280;35601;55.902;13.606;2022-12-18T05:28:01;101953.59;;;-6.03;77.23
49709;BME280;35601;55.902;13.606;2022-12-18T05:30:27;101954.14;;;-5.90;77.47
49709;BME280;35601;55.902;13.606;2022-12-18T05:32:52;101956.44;;;-5.94;77.44
49709;BME280;35601;55.902;13.606;2022-12-18T05:35:18;101960.04;;;-6.01;77.75
49709;BME280;35601;55.902;13.606;2022-12-18T05:37:44;101963.02;;;-5.58;77.17
49709;BME280;35601;55.902;13.606;2022-12-18T05:40:10;101952.31;;;-5.74;77.58
49709;BME280;35601;55.902;13.606;2022-12-18T05:42:35;101951.78;;;-6.20;79.16
49709;BME280;35601;55.902;13.606;2022-12-18T05:45:00;101951.36;;;-6.06;79.29
49709;BME280;35601;55.902;13.606;2022-12-18T05:47:27;101959.22;;;-5.90;78.97
49709;BME280;35601;55.902;13.606;2022-12-18T05:49:52;101959.39;;;-5.88;79.11
49709;BME280;35601;55.902;13.606;2022-12-18T05:52:18;101958.79;;;-5.91;79.39
49709;BME280;35601;55.902;13.606;2022-12-18T05:54:43;101962.45;;;-5.92;79.41
49709;BME280;35601;55.902;13.606;2022-12-18T05:57:09;101958.53;;;-5.78;79.42
49709;BME280;35601;55.902;13.606;2022-12-18T05:59:34;101962.21;;;-6.01;79.97
49709;BME280;35601;55.902;13.606;2022-12-18T06:01:59;101958.01;;;-6.03;80.10
49709;BME280;35601;55.902;13.606;2022-12-18T06:04:26;101946.41;;;-6.03;80.19
49709;BME280;35601;55.902;13.606;2022-12-18T06:06:51;101941.55;;;-6.14;80.66
49709;BME280;35601;55.902;13.606;2022-12-18T06:09:16;101955.59;;;-6.10;80.95
49709;BME280;35601;55.902;13.606;2022-12-18T06:11:42;101957.50;;;-5.82;80.73
49709;BME280;35601;55.902;13.606;2022-12-18T06:14:07;101951.65;;;-6.24;81.33
49709;BME280;35601;55.902;13.606;2022-12-18T06:16:32;101946.14;;;-6.20;81.66
49709;BME280;35601;55.902;13.606;2022-12-18T06:18:58;101944.17;;;-5.98;81.62
49709;BME280;35601;55.902;13.606;2022-12-18T06:21:23;101952.33;;;-5.71;81.49
49709;BME280;35601;55.902;13.606;2022-12-18T06:23:49;101954.06;;;-5.95;80.71
49709;BME280;35601;55.902;13.606;2022-12-18T06:26:15;101966.25;;;-5.76;79.88
49709;BME280;35601;55.902;13.606;2022-12-18T06:28:40;101976.92;;;-5.37;78.50
49709;BME280;35601;55.902;13.606;2022-12-18T06:31:05;101981.57;;;-5.18;77.67
49709;BME280;35601;55.902;13.606;2022-12-18T06:33:30;101979.96;;;-5.39;77.37
49709;BME280;35601;55.902;13.606;2022-12-18T06:36:00;101980.42;;;-5.55;77.31
49709;BME280;35601;55.902;13.606;2022-12-18T06:38:21;101978.47;;;-5.53;77.85
49709;BME280;35601;55.902;13.606;2022-12-18T06:40:46;101979.80;;;-5.36;78.15
49709;BME280;35601;55.902;13.606;2022-12-18T06:43:12;101981.92;;;-5.62;78.25
49709;BME280;35601;55.902;13.606;2022-12-18T06:45:38;101985.81;;;-5.66;78.69
49709;BME280;35601;55.902;13.606;2022-12-18T06:48:04;101985.09;;;-5.54;78.67
49709;BME280;35601;55.902;13.606;2022-12-18T06:50:29;101984.08;;;-5.62;78.58
49709;BME280;35601;55.902;13.606;2022-12-18T06:52:54;101992.76;;;-5.42;78.93
49709;BME280;35601;55.902;13.606;2022-12-18T06:55:20;102000.91;;;-5.31;78.92
49709;BME280;35601;55.902;13.606;2022-12-18T06:57:45;101996.89;;;-5.49;79.64
49709;BME280;35601;55.902;13.606;2022-12-18T07:00:12;101994.81;;;-5.58;80.01
49709;BME280;35601;55.902;13.606;2022-12-18T07:02:37;101993.11;;;-5.45;80.35
49709;BME280;35601;55.902;13.606;2022-12-18T07:05:03;102000.41;;;-5.39;80.11
49709;BME280;35601;55.902;13.606;2022-12-18T07:07:28;102007.09;;;-5.55;80.08
49709;BME280;35601;55.902;13.606;2022-12-18T07:09:53;102002.16;;;-5.54;79.79
49709;BME280;35601;55.902;13.606;2022-12-18T07:12:19;102001.17;;;-5.28;79.85
49709;BME280;35601;55.902;13.606;2022-12-18T07:14:45;101999.49;;;-5.31;79.46
49709;BME280;35601;55.902;13.606;2022-12-18T07:17:10;102011.82;;;-5.30;79.58
49709;BME280;35601;55.902;13.606;2022-12-18T07:19:35;102013.55;;;-5.35;78.88
49709;BME280;35601;55.902;13.606;2022-12-18T07:22:02;102019.47;;;-5.44;79.18
49709;BME280;35601;55.902;13.606;2022-12-18T07:24:27;102020.18;;;-5.43;79.25
49709;BME280;35601;55.902;13.606;2022-12-18T07:26:52;102023.77;;;-5.44;79.11
49709;BME280;35601;55.902;13.606;2022-12-18T07:29:18;102019.21;;;-5.38;79.55
49709;BME280;35601;55.902;13.606;2022-12-18T07:31:43;102021.41;;;-5.58;80.19
49709;BME280;35601;55.902;13.606;2022-12-18T07:34:10;102023.98;;;-5.41;79.80
49709;BME280;35601;55.902;13.606;2022-12-18T07:36:33;102024.46;;;-5.66;79.79
49709;BME280;35601;55.902;13.606;2022-12-18T07:38:59;102019.15;;;-5.57;80.23
49709;BME280;35601;55.902;13.606;2022-12-18T07:41:24;102014.04;;;-5.78;81.03
49709;BME280;35601;55.902;13.606;2022-12-18T07:43:50;102020.24;;;-5.67;81.08
49709;BME280;35601;55.902;13.606;2022-12-18T07:46:16;102026.68;;;-5.56;80.97
49709;BME280;35601;55.902;13.606;2022-12-18T07:48:41;102034.21;;;-5.47;80.68
49709;BME280;35601;55.902;13.606;2022-12-18T07:51:06;102047.84;;;-5.46;80.96
49709;BME280;35601;55.902;13.606;2022-12-18T07:53:32;102045.16;;;-5.52;80.23
49709;BME280;35601;55.902;13.606;2022-12-18T07:55:58;102047.64;;;-5.44;80.03
49709;BME280;35601;55.902;13.606;2022-12-18T07:58:23;102057.44;;;-5.10;79.56
49709;BME280;35601;55.902;13.606;2022-12-18T08:00:48;102053.30;;;-5.21;79.07
49709;BME280;35601;55.902;13.606;2022-12-18T08:03:14;102059.71;;;-5.07;79.04
49709;BME280;35601;55.902;13.606;2022-12-18T08:05:40;102057.85;;;-5.10;79.27
49709;BME280;35601;55.902;13.606;2022-12-18T08:08:05;102061.96;;;-4.97;79.32
49709;BME280;35601;55.902;13.606;2022-12-18T08:10:30;102060.57;;;-4.91;78.60
49709;BME280;35601;55.902;13.606;2022-12-18T08:12:56;102059.48;;;-4.76;77.96
49709;BME280;35601;55.902;13.606;2022-12-18T08:15:21;102054.03;;;-4.77;78.06
49709;BME280;35601;55.902;13.606;2022-12-18T08:17:47;102048.41;;;-4.68;77.71
49709;BME280;35601;55.902;13.606;2022-12-18T08:20:12;102046.39;;;-4.51;77.24
49709;BME280;35601;55.902;13.606;2022-12-18T08:22:37;102044.65;;;-4.60;76.76
49709;BME280;35601;55.902;13.606;2022-12-18T08:25:03;102048.60;;;-4.54;77.36
49709;BME280;35601;55.902;13.606;2022-12-18T08:27:28;102054.26;;;-4.43;77.23
49709;BME280;35601;55.902;13.606;2022-12-18T08:29:53;102057.59;;;-4.60;77.07
49709;BME280;35601;55.902;13.606;2022-12-18T08:32:19;102058.99;;;-4.43;77.40
49709;BME280;35601;55.902;13.606;2022-12-18T08:34:44;102060.66;;;-4.72;78.14
49709;BME280;35601;55.902;13.606;2022-12-18T08:37:09;102062.27;;;-4.68;78.08
49709;BME280;35601;55.902;13.606;2022-12-18T08:39:34;102054.99;;;-4.60;77.80
49709;BME280;35601;55.902;13.606;2022-12-18T08:42:00;102053.33;;;-4.44;77.45
49709;BME280;35601;55.902;13.606;2022-12-18T08:44:26;102054.64;;;-4.66;77.80
49709;BME280;35601;55.902;13.606;2022-12-18T08:46:51;102046.44;;;-4.72;77.92
49709;BME280;35601;55.902;13.606;2022-12-18T08:49:16;102046.36;;;-4.71;78.64
49709;BME280;35601;55.902;13.606;2022-12-18T08:51:41;102047.42;;;-5.06;79.02
49709;BME280;35601;55.902;13.606;2022-12-18T08:54:09;102049.37;;;-4.84;79.21
49709;BME280;35601;55.902;13.606;2022-12-18T08:56:33;102059.81;;;-4.73;79.23
49709;BME280;35601;55.902;13.606;2022-12-18T08:58:58;102057.26;;;-4.81;78.67
49709;BME280;35601;55.902;13.606;2022-12-18T09:01:24;102069.02;;;-4.79;78.80
49709;BME280;35601;55.902;13.606;2022-12-18T09:03:50;102074.18;;;-4.81;78.93
49709;BME280;35601;55.902;13.606;2022-12-18T09:06:16;102081.29;;;-4.63;78.47
49709;BME280;35601;55.902;13.606;2022-12-18T09:08:41;102090.68;;;-4.47;78.31
49709;BME280;35601;55.902;13.606;2022-12-18T09:11:13;102098.11;;;-4.37;77.93
49709;BME280;35601;55.902;13.606;2022-12-18T09:13:31;102100.71;;;-4.38;77.46
49709;BME280;35601;55.902;13.606;2022-12-18T09:15:58;102104.27;;;-4.38;77.29
49709;BME280;35601;55.902;13.606;2022-12-18T09:18:23;102104.07;;;-4.12;77.33
49709;BME280;35601;55.902;13.606;2022-12-18T09:20:48;102102.09;;;-4.37;76.91
49709;BME280;35601;55.902;13.606;2022-12-18T09:23:13;102097.38;;;-4.25;76.48
49709;BME280;35601;55.902;13.606;2022-12-18T09:25:39;102093.65;;;-4.44;76.64
49709;BME280;35601;55.902;13.606;2022-12-18T09:28:06;102098.64;;;-4.17;77.16
49709;BME280;35601;55.902;13.606;2022-12-18T09:30:30;102102.31;;;-4.13;76.36
49709;BME280;35601;55.902;13.606;2022-12-18T09:32:55;102104.07;;;-3.99;76.22
49709;BME280;35601;55.902;13.606;2022-12-18T09:35:20;102107.29;;;-3.88;75.46
49709;BME280;35601;55.902;13.606;2022-12-18T09:37:46;102110.93;;;-4.07;75.84
49709;BME280;35601;55.902;13.606;2022-12-18T09:40:14;102111.42;;;-3.85;75.76
49709;BME280;35601;55.902;13.606;2022-12-18T09:42:37;102104.94;;;-3.85;75.50
49709;BME280;35601;55.902;13.606;2022-12-18T09:45:03;102104.41;;;-3.85;75.32
49709;BME280;35601;55.902;13.606;2022-12-18T09:47:30;102097.40;;;-4.03;75.53
49709;BME280;35601;55.902;13.606;2022-12-18T09:49:55;102096.34;;;-3.87;75.72
49709;BME280;35601;55.902;13.606;2022-12-18T09:52:23;102102.14;;;-4.09;76.31
49709;BME280;35601;55.902;13.606;2022-12-18T09:54:45;102106.77;;;-4.24;76.70
49709;BME280;35601;55.902;13.606;2022-12-18T09:57:14;102107.58;;;-4.08;77.29
49709;BME280;35601;55.902;13.606;2022-12-18T09:59:36;102109.21;;;-3.98;76.82
49709;BME280;35601;55.902;13.606;2022-12-18T10:01:59;102109.26;;;-3.96;76.42
49709;BME280;35601;55.902;13.606;2022-12-18T10:04:24;102108.90;;;-3.86;75.60
49709;BME280;35601;55.902;13.606;2022-12-18T10:06:54;102108.77;;;-3.85;75.32
49709;BME280;35601;55.902;13.606;2022-12-18T10:09:24;102108.62;;;-3.98;75.79
49709;BME280;35601;55.902;13.606;2022-12-18T10:11:46;102112.92;;;-4.14;76.31
49709;BME280;35601;55.902;13.606;2022-12-18T10:14:09;102108.79;;;-4.36;76.68
49709;BME280;35601;55.902;13.606;2022-12-18T10:16:38;102108.63;;;-4.19;76.43
49709;BME280;35601;55.902;13.606;2022-12-18T10:19:04;102110.34;;;-4.03;76.25
49709;BME280;35601;55.902;13.606;2022-12-18T10:21:29;102108.37;;;-4.23;76.56
49709;BME280;35601;55.902;13.606;2022-12-18T10:23:54;102108.08;;;-4.04;76.67
49709;BME280;35601;55.902;13.606;2022-12-18T10:26:13;102105.40;;;-4.19;77.11
49709;BME280;35601;55.902;13.606;2022-12-18T10:28:40;102104.89;;;-4.11;77.22
49709;BME280;35601;55.902;13.606;2022-12-18T10:31:05;102104.48;;;-4.10;77.26
49709;BME280;35601;55.902;13.606;2022-12-18T10:33:30;102110.11;;;-4.17;77.53
49709;BME280;35601;55.902;13.606;2022-12-18T10:35:54;102115.05;;;-4.08;77.24
49709;BME280;35601;55.902;13.606;2022-12-18T10:38:23;102119.75;;;-4.13;77.16
49709;BME280;35601;55.902;13.606;2022-12-18T10:40:51;102118.29;;;-4.10;76.87
49709;BME280;35601;55.902;13.606;2022-12-18T10:43:12;102113.99;;;-4.25;77.21
49709;BME280;35601;55.902;13.606;2022-12-18T10:45:36;102109.62;;;-4.37;77.91
49709;BME280;35601;55.902;13.606;2022-12-18T10:48:03;102100.61;;;-4.30;78.01
49709;BME280;35601;55.902;13.606;2022-12-18T10:50:29;102098.66;;;-4.09;77.42
49709;BME280;35601;55.902;13.606;2022-12-18T10:52:55;102094.44;;;-4.46;78.00
49709;BME280;35601;55.902;13.606;2022-12-18T10:55:18;102102.02;;;-4.37;77.59
49709;BME280;35601;55.902;13.606;2022-12-18T10:57:43;102109.10;;;-4.17;77.48
49709;BME280;35601;55.902;13.606;2022-12-18T11:00:21;102110.42;;;-4.19;76.55
49709;BME280;35601;55.902;13.606;2022-12-18T11:02:35;102115.10;;;-4.13;76.01
49709;BME280;35601;55.902;13.606;2022-12-18T11:04:58;102114.00;;;-3.76;75.83
49709;BME280;35601;55.902;13.606;2022-12-18T11:07:24;102114.75;;;-4.02;75.33
49709;BME280;35601;55.902;13.606;2022-12-18T11:12:17;102117.91;;;-3.63;74.39
49709;BME280;35601;55.902;13.606;2022-12-18T11:14:43;102129.84;;;-3.36;73.27
49709;BME280;35601;55.902;13.606;2022-12-18T11:17:18;102147.78;;;-2.97;72.39
49709;BME280;35601;55.902;13.606;2022-12-18T11:19:33;102154.42;;;-2.61;70.81
49709;BME280;35601;55.902;13.606;2022-12-18T11:21:57;102154.87;;;-2.93;69.79
49709;BME280;35601;55.902;13.606;2022-12-18T11:24:27;102150.10;;;-2.59;69.65
49709;BME280;35601;55.902;13.606;2022-12-18T11:26:47;102153.99;;;-2.68;69.43
49709;BME280;35601;55.902;13.606;2022-12-18T11:29:17;102150.11;;;-2.72;68.76
49709;BME280;35601;55.902;13.606;2022-12-18T11:31:37;102152.25;;;-2.98;69.27
49709;BME280;35601;55.902;13.606;2022-12-18T11:34:05;102156.19;;;-2.72;69.01
49709;BME280;35601;55.902;13.606;2022-12-18T11:36:32;102157.39;;;-2.82;69.33
49709;BME280;35601;55.902;13.606;2022-12-18T11:38:55;102158.77;;;-2.87;69.26
49709;BME280;35601;55.902;13.606;2022-12-18T11:41:23;102159.03;;;-2.89;69.82
49709;BME280;35601;55.902;13.606;2022-12-18T11:43:48;102160.79;;;-2.91;69.62
49709;BME280;35601;55.902;13.606;2022-12-18T11:46:13;102162.49;;;-2.66;69.38
49709;BME280;35601;55.902;13.606;2022-12-18T11:48:38;102164.01;;;-2.69;68.83
49709;BME280;35601;55.902;13.606;2022-12-18T11:51:03;102161.62;;;-2.69;68.62
49709;BME280;35601;55.902;13.606;2022-12-18T11:53:27;102159.98;;;-2.48;68.53
49709;BME280;35601;55.902;13.606;2022-12-18T11:56:00;102158.59;;;-2.81;68.42
49709;BME280;35601;55.902;13.606;2022-12-18T11:58:26;102162.57;;;-2.89;68.47
49709;BME280;35601;55.902;13.606;2022-12-18T12:00:48;102161.14;;;-3.28;69.19
49709;BME280;35601;55.902;13.606;2022-12-18T12:03:20;102163.68;;;-2.83;69.64
49709;BME280;35601;55.902;13.606;2022-12-18T12:05:41;102158.25;;;-3.32;69.36
49709;BME280;35601;55.902;13.606;2022-12-18T12:08:03;102157.58;;;-3.70;70.20
49709;BME280;35601;55.902;13.606;2022-12-18T12:10:34;102161.23;;;-3.31;69.71
49709;BME280;35601;55.902;13.606;2022-12-18T12:13:00;102164.21;;;-3.27;69.32
49709;BME280;35601;55.902;13.606;2022-12-18T12:15:21;102168.60;;;-3.65;69.44
49709;BME280;35601;55.902;13.606;2022-12-18T12:17:47;102172.40;;;-3.67;70.11
49709;BME280;35601;55.902;13.606;2022-12-18T12:20:15;102169.01;;;-3.61;70.79
49709;BME280;35601;55.902;13.606;2022-12-18T12:22:35;102166.03;;;-3.84;71.28
49709;BME280;35601;55.902;13.606;2022-12-18T12:25:06;102167.65;;;-3.97;71.54
49709;BME280;35601;55.902;13.606;2022-12-18T12:27:27;102168.11;;;-3.92;71.29
49709;BME280;35601;55.902;13.606;2022-12-18T12:29:54;102172.95;;;-3.98;71.47
49709;BME280;35601;55.902;13.606;2022-12-18T12:32:22;102167.03;;;-3.91;71.28